Terminal Aerodrome Forecast
Issued by NWS

Home | Current Version | Previous Version | Text Only | Print | Product List | Glossary On
Versions: 1 2 3 4 5 6 7 8 9 10 11 12 13 14 15 16 17 18 19 20 21 22 23 24 25 26 27 28 29 30 31 32 33
000
FTUS43 KDLH 252300
TAFHIB
TAF
KHIB 252332Z 2600/2624 30015G25KT 6SM -RASN OVC025
      TEMPO 2600/2604 3SM -SN OVC018
     FM260600 32014G22KT P6SM OVC030
     FM261200 34014KT P6SM BKN035
     FM261400 35012KT P6SM SCT040=

USA.gov is the U.S. government's official web portal to all federal, state and local government web resources and services.